createdAt,value
2019-02-03T00:00:43.377Z,87.40
2019-02-03T00:01:51.446Z,88.92
2019-02-03T00:02:59.499Z,89.96
2019-02-03T00:04:07.553Z,89.49
2019-02-03T00:05:15.600Z,91.57
2019-02-03T00:06:23.649Z,90.34
2019-02-03T00:07:31.705Z,92.24
2019-02-03T00:08:39.791Z,90.91
2019-02-03T00:09:47.821Z,91.19
2019-02-03T00:10:55.872Z,90.44
2019-02-03T00:12:03.927Z,93.18
2019-02-03T00:13:11.978Z,90.25
2019-02-03T00:14:20.176Z,93.27
2019-02-03T00:15:28.103Z,90.81
2019-02-03T00:16:36.152Z,92.24
2019-02-03T00:17:44.171Z,90.91
2019-02-03T00:18:52.258Z,91.48
2019-02-03T00:20:00.438Z,92.90
2019-02-03T00:21:08.408Z,93.75
2019-02-03T00:22:16.420Z,91.76
2019-02-03T00:23:24.450Z,92.24
2019-02-03T00:24:32.525Z,93.27
2019-02-03T00:25:40.580Z,93.37
2019-02-03T00:26:48.668Z,91.67
2019-02-03T00:27:56.704Z,93.94
2019-02-03T00:29:04.729Z,93.08
2019-02-03T00:30:12.794Z,91.57
2019-02-03T00:31:20.868Z,92.99
2019-02-03T00:32:28.900Z,92.33
2019-02-03T00:33:36.961Z,92.33
2019-02-03T00:34:45.013Z,92.80
2019-02-03T00:35:53.079Z,92.52
2019-02-03T00:37:01.131Z,96.78
2019-02-03T00:38:19.822Z,94.70
2019-02-03T00:39:17.237Z,93.27
2019-02-03T00:40:25.299Z,93.65
2019-02-03T00:41:33.352Z,93.18
2019-02-03T00:42:41.397Z,93.56
2019-02-03T00:43:49.461Z,96.12
2019-02-03T00:44:57.508Z,93.46
2019-02-03T00:46:05.577Z,95.45
2019-02-03T00:47:13.633Z,93.56
2019-02-03T00:48:21.711Z,93.56
2019-02-03T00:49:29.732Z,95.93
2019-02-03T00:50:37.776Z,96.40
2019-02-03T00:51:45.845Z,93.75
2019-02-03T00:52:53.900Z,95.64
2019-02-03T00:54:01.943Z,93.84
2019-02-03T00:55:10.004Z,96.21
2019-02-03T00:56:18.051Z,93.56
2019-02-03T00:57:26.121Z,96.12
2019-02-03T00:58:34.141Z,94.70
2019-02-03T00:59:42.220Z,94.32
2019-02-03T01:00:50.278Z,94.60
2019-02-03T01:01:58.337Z,96.50
2019-02-03T01:03:06.409Z,94.98
2019-02-03T01:04:14.431Z,95.45
2019-02-03T01:05:22.481Z,96.69
2019-02-03T01:06:30.533Z,94.51
2019-02-03T01:07:38.600Z,96.50
2019-02-03T01:08:46.652Z,99.99
2019-02-03T01:09:54.712Z,97.82
2019-02-03T01:11:02.756Z,99.33
2019-02-03T01:12:10.816Z,99.99
2019-02-03T01:13:18.872Z,99.71
2019-02-03T01:14:26.917Z,99.05
2019-02-03T01:15:34.969Z,98.68
2019-02-03T01:16:43.063Z,97.44
2019-02-03T01:17:51.085Z,97.54
2019-02-03T01:18:59.148Z,97.44
2019-02-03T01:20:07.182Z,96.21
2019-02-03T01:21:15.272Z,95.26
2019-02-03T01:22:23.313Z,95.36
2019-02-03T01:23:31.359Z,97.25
2019-02-03T01:24:39.430Z,95.83
2019-02-03T01:25:47.474Z,97.63
2019-02-03T01:26:55.526Z,95.26
2019-02-03T01:28:03.580Z,96.12
2019-02-03T01:29:11.634Z,94.60
2019-02-03T01:30:19.689Z,96.21
2019-02-03T01:31:27.740Z,95.07
2019-02-03T01:32:35.796Z,94.98
2019-02-03T01:33:43.831Z,94.89
2019-02-03T01:34:51.894Z,93.75
2019-02-03T01:35:59.960Z,96.69
2019-02-03T01:37:08.017Z,95.64
2019-02-03T01:38:16.058Z,97.25
2019-02-03T01:39:24.182Z,95.17
2019-02-03T01:40:32.169Z,94.98
2019-02-03T01:41:40.233Z,95.64
2019-02-03T01:42:48.354Z,95.36
2019-02-03T01:43:56.326Z,96.78
2019-02-03T01:45:04.358Z,94.98
2019-02-03T01:46:12.446Z,95.64
2019-02-03T01:47:20.488Z,95.55
2019-02-03T01:48:28.555Z,96.31
2019-02-03T01:49:36.706Z,94.51
2019-02-03T01:50:44.637Z,95.55
2019-02-03T01:51:52.707Z,93.37
2019-02-03T01:53:00.755Z,93.37
2019-02-03T01:54:08.841Z,95.93
2019-02-03T01:55:16.872Z,94.70
2019-02-03T01:56:24.913Z,96.21
2019-02-03T01:57:32.979Z,95.64
2019-02-03T01:58:41.040Z,97.06
2019-02-03T01:59:49.081Z,97.35
2019-02-03T02:00:57.140Z,97.63
2019-02-03T02:02:05.186Z,96.78
2019-02-03T02:03:13.268Z,94.89
2019-02-03T02:04:21.326Z,94.79
2019-02-03T02:05:29.379Z,95.26
2019-02-03T02:06:37.403Z,94.04
2019-02-03T02:07:51.352Z,94.13
2019-02-03T02:08:53.525Z,94.32
2019-02-03T02:10:01.584Z,94.51
2019-02-03T02:11:09.648Z,94.32
2019-02-03T02:12:17.673Z,97.25
2019-02-03T02:13:25.755Z,95.55
2019-02-03T02:14:33.783Z,95.17
2019-02-03T02:15:41.861Z,93.75
2019-02-03T02:16:49.898Z,94.89
2019-02-03T02:17:57.959Z,94.13
2019-02-03T02:19:05.999Z,95.17
2019-02-03T02:20:14.052Z,97.25
2019-02-03T02:21:22.170Z,93.65
2019-02-03T02:22:30.161Z,95.17
2019-02-03T02:23:38.246Z,93.18
2019-02-03T02:24:46.284Z,93.65
2019-02-03T02:25:54.323Z,95.93
2019-02-03T02:27:02.398Z,93.65
2019-02-03T02:28:10.449Z,93.27
2019-02-03T02:29:18.504Z,94.79
2019-02-03T02:30:26.567Z,93.56
2019-02-03T02:31:34.588Z,93.75
2019-02-03T02:32:42.670Z,94.13
2019-02-03T02:33:50.713Z,94.13
2019-02-03T02:34:58.771Z,93.94
2019-02-03T02:36:06.822Z,93.37
2019-02-03T02:37:14.878Z,92.99
2019-02-03T02:38:22.941Z,93.08
2019-02-03T02:39:30.995Z,92.99
2019-02-03T02:40:39.041Z,92.33
2019-02-03T02:41:47.093Z,92.43
2019-02-03T02:42:55.155Z,92.33
2019-02-03T02:44:03.228Z,91.67
2019-02-03T02:45:11.287Z,91.57
2019-02-03T02:46:19.317Z,89.39
2019-02-03T02:47:27.369Z,89.77
2019-02-03T02:48:35.426Z,89.68
2019-02-03T02:49:43.518Z,88.35
2019-02-03T02:50:51.551Z,87.69
2019-02-03T02:51:59.581Z,85.70
2019-02-03T02:53:07.631Z,85.99
2019-02-03T02:54:15.685Z,85.51
2019-02-03T02:55:23.743Z,85.32
2019-02-03T02:56:31.799Z,84.56
2019-02-03T02:57:39.869Z,83.71
2019-02-03T02:58:47.918Z,83.43
2019-02-03T02:59:55.972Z,82.86
2019-02-03T03:01:03.988Z,82.10
2019-02-03T03:02:12.072Z,81.63
2019-02-03T03:03:20.118Z,82.01
2019-02-03T03:04:28.187Z,82.10
2019-02-03T03:05:36.230Z,81.92
2019-02-03T03:06:44.265Z,80.87
2019-02-03T03:07:52.356Z,81.63
2019-02-03T03:09:01.460Z,78.31
2019-02-03T03:10:08.459Z,78.22
2019-02-03T03:11:16.519Z,77.84
2019-02-03T03:12:24.548Z,76.99
2019-02-03T03:13:32.623Z,76.04
2019-02-03T03:14:40.685Z,75.19
2019-02-03T03:15:48.729Z,73.30
2019-02-03T03:16:56.795Z,72.44
2019-02-03T03:18:04.844Z,69.89
2019-02-03T03:19:12.902Z,69.41
2019-02-03T03:20:20.944Z,69.41
2019-02-03T03:21:28.996Z,67.99
2019-02-03T03:22:37.056Z,67.24
2019-02-03T03:23:45.106Z,67.43
2019-02-03T03:24:53.169Z,67.52
2019-02-03T03:26:01.222Z,67.43
2019-02-03T03:27:09.268Z,66.09
2019-02-03T03:28:17.353Z,65.81
2019-02-03T03:29:25.384Z,66.67
2019-02-03T03:30:33.430Z,65.72
2019-02-03T03:31:41.485Z,65.15
2019-02-03T03:32:49.554Z,66.76
2019-02-03T03:33:57.593Z,66.86
2019-02-03T03:35:05.653Z,65.72
2019-02-03T03:36:13.679Z,65.69
2019-02-03T03:37:21.760Z,65.44
2019-02-03T03:38:31.920Z,65.72
2019-02-03T03:39:37.877Z,67.43
2019-02-03T03:40:45.931Z,67.14
2019-02-03T03:41:53.961Z,66.09
2019-02-03T03:43:02.062Z,66.76
2019-02-03T03:44:10.080Z,66.86
2019-02-03T03:45:18.140Z,66.95
2019-02-03T03:46:26.184Z,67.99
2019-02-03T03:47:34.244Z,68.75
2019-02-03T03:48:42.285Z,68.65
2019-02-03T03:49:50.343Z,68.75
2019-02-03T03:50:58.406Z,68.75
2019-02-03T03:52:06.465Z,68.84
2019-02-03T03:53:14.495Z,69.60
2019-02-03T03:54:22.565Z,69.57
2019-02-03T03:55:30.652Z,69.03
2019-02-03T03:56:39.458Z,68.75
2019-02-03T03:57:46.740Z,68.65
2019-02-03T03:58:54.770Z,69.57
2019-02-03T04:00:02.863Z,68.65
2019-02-03T04:01:10.886Z,69.03
2019-02-03T04:02:18.948Z,67.24
2019-02-03T04:03:26.989Z,67.05
2019-02-03T04:04:35.043Z,67.43
2019-02-03T04:05:43.110Z,66.95
2019-02-03T04:06:51.171Z,66.76
2019-02-03T04:07:59.252Z,67.30
2019-02-03T04:09:07.335Z,67.52
2019-02-03T04:10:15.347Z,66.38
2019-02-03T04:11:23.390Z,66.76
2019-02-03T04:12:31.441Z,66.57
2019-02-03T04:13:39.475Z,66.38
2019-02-03T04:14:47.545Z,65.63
2019-02-03T04:15:55.617Z,66.95
2019-02-03T04:17:03.642Z,65.81
2019-02-03T04:18:11.701Z,66.38
2019-02-03T04:19:19.777Z,67.43
2019-02-03T04:20:27.803Z,67.05
2019-02-03T04:21:35.876Z,66.47
2019-02-03T04:22:43.985Z,66.57
2019-02-03T04:23:51.980Z,66.57
2019-02-03T04:25:00.030Z,66.95
2019-02-03T04:26:08.074Z,66.67
2019-02-03T04:27:16.146Z,67.33
2019-02-03T04:28:24.175Z,68.84
2019-02-03T04:29:32.253Z,68.94
2019-02-03T04:30:40.327Z,68.56
2019-02-03T04:31:48.384Z,69.51
2019-02-03T04:32:56.416Z,69.60
2019-02-03T04:34:04.462Z,69.89
2019-02-03T04:35:12.567Z,69.70
2019-02-03T04:36:20.583Z,70.26
2019-02-03T04:37:28.634Z,70.26
2019-02-03T04:38:36.689Z,70.93
2019-02-03T04:39:44.725Z,70.45
2019-02-03T04:40:52.799Z,69.60
2019-02-03T04:42:00.855Z,70.26
2019-02-03T04:43:08.893Z,71.97
2019-02-03T04:44:16.959Z,70.83
2019-02-03T04:45:25.012Z,70.36
2019-02-03T04:46:33.067Z,71.12
2019-02-03T04:47:41.130Z,72.34
2019-02-03T04:48:49.186Z,71.50
2019-02-03T04:49:57.245Z,73.01
2019-02-03T04:51:05.277Z,71.78
2019-02-03T04:52:13.355Z,72.06
2019-02-03T04:53:21.400Z,70.93
2019-02-03T04:54:29.436Z,71.69
2019-02-03T04:55:37.489Z,70.64
2019-02-03T04:56:45.545Z,71.59
2019-02-03T04:57:53.610Z,71.59
2019-02-03T04:59:01.662Z,70.83
2019-02-03T05:00:09.713Z,70.17
2019-02-03T05:01:17.773Z,70.45
2019-02-03T05:02:25.826Z,72.63
2019-02-03T05:03:33.869Z,73.39
2019-02-03T05:04:41.964Z,72.06
2019-02-03T05:05:49.977Z,71.88
2019-02-03T05:06:58.030Z,70.93
2019-02-03T05:08:06.094Z,70.93
2019-02-03T05:09:14.141Z,69.41
2019-02-03T05:10:22.227Z,70.26
2019-02-03T05:11:30.265Z,70.26
2019-02-03T05:12:38.321Z,71.59
2019-02-03T05:13:46.373Z,72.16
2019-02-03T05:14:54.406Z,71.88
2019-02-03T05:16:02.758Z,74.33
2019-02-03T05:17:10.549Z,73.11
2019-02-03T05:18:19.105Z,72.44
2019-02-03T05:19:27.238Z,72.73
2019-02-03T05:20:35.357Z,73.11
2019-02-03T05:21:43.349Z,73.01
2019-02-03T05:22:50.881Z,72.92
2019-02-03T05:23:59.431Z,74.33
2019-02-03T05:25:07.558Z,74.05
2019-02-03T05:26:15.485Z,73.68
2019-02-03T05:27:23.595Z,75.38
2019-02-03T05:28:31.653Z,74.33
2019-02-03T05:29:40.732Z,73.68
2019-02-03T05:30:47.611Z,74.24
2019-02-03T05:31:56.210Z,73.68
2019-02-03T05:33:04.883Z,75.76
2019-02-03T05:34:11.359Z,74.33
2019-02-03T05:35:19.428Z,74.43
2019-02-03T05:36:27.449Z,74.15
2019-02-03T05:37:35.516Z,75.38
2019-02-03T05:38:43.585Z,75.19
2019-02-03T05:39:51.628Z,73.20
2019-02-03T05:40:59.675Z,77.27
2019-02-03T05:42:07.727Z,75.47
2019-02-03T05:43:15.784Z,76.04
2019-02-03T05:44:23.829Z,75.00
2019-02-03T05:45:31.903Z,74.62
2019-02-03T05:46:40.494Z,72.63
2019-02-03T05:47:50.134Z,71.78
2019-02-03T05:48:56.418Z,70.45
2019-02-03T05:50:04.083Z,70.45
2019-02-03T05:51:12.171Z,70.07
2019-02-03T05:52:20.224Z,70.26
2019-02-03T05:53:28.384Z,71.31
2019-02-03T05:54:36.344Z,71.12
2019-02-03T05:55:44.368Z,71.78
2019-02-03T05:56:52.447Z,70.36
2019-02-03T05:58:00.498Z,70.26
2019-02-03T05:59:08.541Z,71.50
2019-02-03T06:00:16.611Z,72.34
2019-02-03T06:01:24.997Z,70.26
2019-02-03T06:02:32.703Z,68.84
2019-02-03T06:03:40.766Z,68.75
2019-02-03T06:04:49.349Z,67.33
2019-02-03T06:05:56.876Z,67.14
2019-02-03T06:07:04.999Z,67.71
2019-02-03T06:08:12.967Z,67.14
2019-02-03T06:09:21.049Z,66.67
2019-02-03T06:10:29.100Z,66.86
2019-02-03T06:11:37.154Z,66.95
2019-02-03T06:12:45.196Z,65.12
2019-02-03T06:13:53.257Z,64.55
2019-02-03T06:15:01.315Z,66.06
2019-02-03T06:16:09.382Z,65.78
2019-02-03T06:17:17.450Z,64.64
2019-02-03T06:18:25.468Z,64.74
2019-02-03T06:19:33.523Z,64.55
2019-02-03T06:20:41.578Z,64.93
2019-02-03T06:21:49.645Z,65.12
2019-02-03T06:22:57.680Z,64.45
2019-02-03T06:24:05.730Z,65.97
2019-02-03T06:25:13.778Z,64.07
2019-02-03T06:26:21.850Z,61.52
2019-02-03T06:27:29.915Z,62.47
2019-02-03T06:28:37.948Z,61.90
2019-02-03T06:29:46.002Z,61.71
2019-02-03T06:30:54.068Z,60.96
2019-02-03T06:32:02.148Z,62.66
2019-02-03T06:33:10.178Z,64.74
2019-02-03T06:34:18.244Z,63.79
2019-02-03T06:35:26.282Z,63.98
2019-02-03T06:36:34.339Z,65.12
2019-02-03T06:37:42.410Z,65.69
2019-02-03T06:38:50.466Z,66.44
2019-02-03T06:39:58.507Z,69.09
2019-02-03T06:41:06.568Z,68.90
2019-02-03T06:42:14.622Z,69.28
2019-02-03T06:43:22.683Z,67.01
2019-02-03T06:44:30.823Z,66.35
2019-02-03T06:45:38.783Z,69.57
2019-02-03T06:46:46.837Z,68.71
2019-02-03T06:47:54.872Z,67.01
2019-02-03T06:49:02.937Z,66.44
2019-02-03T06:50:10.991Z,61.71
2019-02-03T06:51:19.051Z,58.11
2019-02-03T06:52:27.100Z,57.45
2019-02-03T06:53:35.154Z,52.62
2019-02-03T06:54:43.210Z,51.77
2019-02-03T06:55:51.277Z,51.87
2019-02-03T06:56:59.317Z,51.39
2019-02-03T06:58:07.380Z,49.69
2019-02-03T06:59:15.439Z,49.98
2019-02-03T07:00:23.491Z,48.18
2019-02-03T07:01:31.552Z,46.75
2019-02-03T07:02:39.596Z,46.28
2019-02-03T07:03:47.642Z,46.28
2019-02-03T07:04:55.700Z,45.90
2019-02-03T07:06:03.765Z,45.81
2019-02-03T07:07:11.805Z,44.77
2019-02-03T07:08:19.857Z,44.86
2019-02-03T07:09:27.911Z,45.24
2019-02-03T07:10:35.967Z,44.39
2019-02-03T07:11:44.045Z,43.91
2019-02-03T07:12:52.057Z,43.73
2019-02-03T07:14:00.125Z,43.42
2019-02-03T07:15:08.174Z,45.43
2019-02-03T07:16:16.246Z,45.24
2019-02-03T07:17:24.265Z,45.03
2019-02-03T07:18:32.356Z,44.48
2019-02-03T07:19:40.393Z,45.43
2019-02-03T07:20:48.450Z,46.28
2019-02-03T07:21:56.590Z,46.00
2019-02-03T07:23:04.533Z,46.56
2019-02-03T07:24:12.604Z,46.28
2019-02-03T07:25:20.676Z,47.80
2019-02-03T07:26:28.702Z,49.50
2019-02-03T07:27:36.843Z,49.95
2019-02-03T07:28:44.820Z,51.96
2019-02-03T07:29:52.868Z,52.72
2019-02-03T07:31:00.942Z,52.06
2019-02-03T07:32:08.978Z,53.36
2019-02-03T07:33:17.355Z,53.19
2019-02-03T07:34:25.090Z,51.96
2019-02-03T07:35:33.156Z,51.68
2019-02-03T07:36:41.253Z,51.30
2019-02-03T07:37:49.253Z,51.09
2019-02-03T07:38:57.498Z,51.58
2019-02-03T07:40:12.423Z,51.93
2019-02-03T07:41:13.629Z,50.42
2019-02-03T07:42:21.689Z,50.90
2019-02-03T07:43:29.616Z,51.56
2019-02-03T07:44:37.877Z,52.60
2019-02-03T07:45:45.644Z,50.61
2019-02-03T07:46:53.811Z,51.93
2019-02-03T07:48:01.901Z,51.46
2019-02-03T07:49:09.775Z,50.45
2019-02-03T07:50:17.935Z,50.90
2019-02-03T07:51:25.928Z,51.37
2019-02-03T07:52:33.952Z,51.65
2019-02-03T07:53:42.114Z,52.88
2019-02-03T07:54:50.124Z,56.13
2019-02-03T07:55:58.095Z,55.18
2019-02-03T07:57:06.168Z,55.15
2019-02-03T07:58:14.197Z,56.29
2019-02-03T07:59:22.277Z,56.38
2019-02-03T08:00:30.327Z,57.83
2019-02-03T08:01:38.386Z,58.37
2019-02-03T08:02:46.449Z,58.09
2019-02-03T08:03:54.469Z,58.09
2019-02-03T08:05:02.556Z,61.52
2019-02-03T08:06:10.614Z,63.98
2019-02-03T08:07:18.657Z,77.67
2019-02-03T08:08:26.702Z,78.52
2019-02-03T08:09:34.732Z,75.02
2019-02-03T08:10:42.802Z,75.49
2019-02-03T08:11:50.859Z,69.06
2019-02-03T08:12:58.930Z,66.22
2019-02-03T08:14:06.980Z,65.56
2019-02-03T08:15:15.019Z,73.03
2019-02-03T08:16:23.712Z,69.15
2019-02-03T08:17:31.142Z,69.44
2019-02-03T08:18:39.183Z,68.96
2019-02-03T08:19:47.239Z,69.72
2019-02-03T08:20:55.318Z,69.91
2019-02-03T08:22:03.875Z,72.56
2019-02-03T08:23:11.728Z,70.29
2019-02-03T08:24:19.451Z,71.42
2019-02-03T08:25:27.485Z,70.95
2019-02-03T08:26:35.572Z,71.61
2019-02-03T08:27:43.611Z,71.90
2019-02-03T08:28:51.678Z,75.62
2019-02-03T08:29:59.721Z,74.55
2019-02-03T08:31:07.777Z,75.87
2019-02-03T08:32:15.833Z,75.81
2019-02-03T08:33:23.862Z,75.59
2019-02-03T08:34:31.941Z,75.91
2019-02-03T08:35:40.034Z,74.02
2019-02-03T08:36:48.042Z,76.76
2019-02-03T08:37:56.077Z,77.23
2019-02-03T08:39:04.134Z,83.48
2019-02-03T08:40:12.190Z,85.94
2019-02-03T08:41:20.253Z,82.44
2019-02-03T08:42:28.308Z,79.98
2019-02-03T08:43:36.376Z,78.27
2019-02-03T08:44:44.409Z,79.98
2019-02-03T08:45:52.476Z,79.98
2019-02-03T08:47:00.552Z,81.96
2019-02-03T08:48:08.583Z,84.33
2019-02-03T08:49:16.699Z,79.79
2019-02-03T08:50:24.693Z,81.59
2019-02-03T08:51:32.757Z,83.48
2019-02-03T08:52:41.272Z,83.58
2019-02-03T08:53:49.398Z,81.96
2019-02-03T08:54:57.821Z,84.42
2019-02-03T08:56:04.954Z,82.63
2019-02-03T08:57:13.033Z,80.83
2019-02-03T08:58:21.073Z,81.02
2019-02-03T08:59:29.107Z,85.09
2019-02-03T09:00:37.170Z,78.46
2019-02-03T09:01:45.232Z,78.56
2019-02-03T09:02:53.294Z,78.08
2019-02-03T09:04:01.346Z,80.74
2019-02-03T09:05:09.378Z,86.41
2019-02-03T09:06:17.461Z,84.81
2019-02-03T09:07:25.841Z,90.20
2019-02-03T09:08:34.120Z,94.70
2019-02-03T09:09:41.589Z,88.97
2019-02-03T09:10:49.653Z,99.99
2019-02-03T09:11:57.705Z,94.93
2019-02-03T09:13:05.772Z,92.29
2019-02-03T09:14:14.196Z,97.49
2019-02-03T09:15:21.869Z,91.43
2019-02-03T09:16:29.927Z,91.34
2019-02-03T09:17:37.981Z,88.97
2019-02-03T09:18:46.047Z,95.17
2019-02-03T09:19:54.105Z,94.27
2019-02-03T09:21:02.741Z,94.08
2019-02-03T09:22:10.202Z,94.46
2019-02-03T09:23:18.375Z,86.94
2019-02-03T09:24:26.953Z,86.89
2019-02-03T09:25:35.018Z,85.66
2019-02-03T09:26:42.411Z,90.20
2019-02-03T09:27:50.613Z,87.17
2019-02-03T09:28:58.540Z,86.79
2019-02-03T09:30:06.587Z,88.02
2019-02-03T09:31:14.638Z,89.63
2019-02-03T09:32:22.805Z,87.65
2019-02-03T09:33:31.278Z,89.16
2019-02-03T09:34:38.835Z,92.66
2019-02-03T09:35:46.873Z,90.58
2019-02-03T09:36:54.888Z,90.77
2019-02-03T09:38:02.952Z,96.16
2019-02-03T09:39:11.474Z,98.63
2019-02-03T09:40:19.075Z,94.46
2019-02-03T09:41:27.126Z,94.79
2019-02-03T09:42:35.169Z,93.61
2019-02-03T09:43:43.236Z,95.59
2019-02-03T09:44:52.516Z,97.39
2019-02-03T09:45:59.346Z,95.97
2019-02-03T09:47:07.392Z,93.42
2019-02-03T09:48:15.482Z,99.99
2019-02-03T09:49:23.486Z,95.40
2019-02-03T09:50:31.542Z,94.56
2019-02-03T09:51:39.614Z,99.66
2019-02-03T09:52:47.664Z,99.99
2019-02-03T09:53:55.715Z,92.71
2019-02-03T09:55:03.777Z,91.62
2019-02-03T09:56:11.827Z,98.63
2019-02-03T09:57:19.876Z,94.51
2019-02-03T09:58:27.931Z,91.96
2019-02-03T09:59:35.981Z,95.36
2019-02-03T10:00:44.019Z,92.33
2019-02-03T10:01:52.087Z,91.48
2019-02-03T10:03:00.156Z,87.88
2019-02-03T10:04:08.210Z,89.40
2019-02-03T10:05:16.266Z,92.90
2019-02-03T10:06:24.301Z,85.24
2019-02-03T10:07:32.380Z,86.85
2019-02-03T10:08:41.063Z,87.23
2019-02-03T10:09:48.498Z,90.82
2019-02-03T10:10:56.544Z,86.66
2019-02-03T10:12:04.575Z,85.33
2019-02-03T10:13:12.667Z,87.88
2019-02-03T10:14:20.709Z,88.45
2019-02-03T10:15:28.767Z,97.06
2019-02-03T10:16:36.824Z,84.86
2019-02-03T10:17:44.895Z,88.26
2019-02-03T10:18:53.078Z,90.16
2019-02-03T10:20:00.998Z,83.25
2019-02-03T10:21:09.060Z,85.05
2019-02-03T10:22:17.082Z,95.93
2019-02-03T10:23:25.158Z,89.02
2019-02-03T10:24:41.871Z,94.79
2019-02-03T10:25:41.276Z,90.34
2019-02-03T10:26:49.319Z,88.64
2019-02-03T10:27:57.382Z,89.59
2019-02-03T10:29:05.432Z,90.06
2019-02-03T10:30:13.478Z,93.56
2019-02-03T10:31:21.577Z,97.53
2019-02-03T10:32:30.300Z,96.69
2019-02-03T10:33:37.647Z,99.99
2019-02-03T10:34:45.709Z,99.05
2019-02-03T10:35:53.756Z,97.25
2019-02-03T10:37:01.806Z,99.99
2019-02-03T10:38:09.855Z,99.99
2019-02-03T10:39:17.909Z,99.99
2019-02-03T10:40:25.983Z,99.99
2019-02-03T10:41:33.991Z,99.99
2019-02-03T10:42:42.082Z,99.99
2019-02-03T10:43:50.123Z,99.99
2019-02-03T10:44:58.192Z,99.99
2019-02-03T10:46:06.249Z,97.53
2019-02-03T10:47:14.288Z,99.99
2019-02-03T10:48:22.357Z,99.99
2019-02-03T10:49:30.402Z,98.96
2019-02-03T10:50:38.476Z,99.99
2019-02-03T10:51:46.526Z,99.99
2019-02-03T10:52:54.554Z,99.99
2019-02-03T10:54:02.615Z,99.99
2019-02-03T10:55:10.681Z,99.99
2019-02-03T10:56:18.729Z,95.36
2019-02-03T10:57:26.771Z,99.99
2019-02-03T10:58:34.846Z,99.99
2019-02-03T10:59:42.927Z,99.99
2019-02-03T11:00:50.944Z,98.86
2019-02-03T11:01:58.986Z,99.99
2019-02-03T11:03:07.054Z,99.90
2019-02-03T11:04:15.104Z,99.99
2019-02-03T11:05:23.153Z,99.99
2019-02-03T11:06:31.224Z,99.99
2019-02-03T11:07:39.284Z,99.99
2019-02-03T11:08:47.341Z,98.20
2019-02-03T11:09:55.378Z,97.53
2019-02-03T11:11:03.425Z,97.53
2019-02-03T11:12:11.478Z,99.99
2019-02-03T11:13:19.540Z,97.44
2019-02-03T11:14:27.598Z,99.90
2019-02-03T11:15:35.661Z,99.99
2019-02-03T11:16:43.704Z,99.99
2019-02-03T11:17:51.764Z,99.99
2019-02-03T11:18:59.800Z,99.99
2019-02-03T11:20:07.865Z,99.99
2019-02-03T11:21:15.925Z,99.99
2019-02-03T11:22:23.953Z,99.99
2019-02-03T11:23:32.021Z,99.99
2019-02-03T11:24:40.072Z,99.99
2019-02-03T11:25:48.137Z,99.99
2019-02-03T11:26:56.186Z,99.99
2019-02-03T11:28:04.222Z,99.99
2019-02-03T11:29:12.310Z,99.99
2019-02-03T11:30:20.352Z,99.99
2019-02-03T11:31:28.408Z,99.99
2019-02-03T11:32:36.476Z,99.99
2019-02-03T11:33:44.492Z,99.99
2019-02-03T11:34:52.570Z,99.99
2019-02-03T11:36:00.641Z,99.99
2019-02-03T11:37:08.680Z,99.99
2019-02-03T11:38:16.735Z,99.99
2019-02-03T11:39:24.763Z,99.99
2019-02-03T11:40:32.833Z,99.99
2019-02-03T11:41:48.519Z,99.99
2019-02-03T11:42:48.949Z,99.99
2019-02-03T11:43:57.007Z,99.99
2019-02-03T11:45:05.057Z,99.99
2019-02-03T11:46:13.112Z,99.99
2019-02-03T11:47:21.175Z,99.99
2019-02-03T11:48:29.232Z,99.99
2019-02-03T11:49:37.292Z,99.99
2019-02-03T11:50:45.335Z,99.99
2019-02-03T11:51:53.389Z,99.99
2019-02-03T11:53:01.450Z,99.99
2019-02-03T11:54:09.496Z,99.99
2019-02-03T11:55:17.561Z,99.99
2019-02-03T11:56:25.601Z,99.99
2019-02-03T11:57:33.653Z,99.99
2019-02-03T11:58:41.723Z,99.99
2019-02-03T11:59:49.774Z,99.99
2019-02-03T12:00:57.832Z,99.99
2019-02-03T12:02:05.868Z,99.99
2019-02-03T12:03:13.933Z,99.99
2019-02-03T12:04:21.987Z,99.99
2019-02-03T12:05:30.050Z,99.99
2019-02-03T12:06:38.089Z,99.99
2019-02-03T12:07:46.150Z,99.99
2019-02-03T12:08:54.172Z,99.99
2019-02-03T12:10:02.265Z,99.99
2019-02-03T12:11:10.313Z,99.99
2019-02-03T12:12:18.368Z,99.99
2019-02-03T12:13:26.428Z,99.99
2019-02-03T12:14:34.453Z,99.99
2019-02-03T12:15:42.527Z,99.99
2019-02-03T12:16:50.578Z,99.99
2019-02-03T12:17:58.643Z,99.99
2019-02-03T12:19:06.701Z,99.99
2019-02-03T12:20:14.739Z,99.99
2019-02-03T12:21:22.799Z,99.99
2019-02-03T12:22:30.854Z,99.99
2019-02-03T12:23:38.898Z,99.99
2019-02-03T12:24:46.959Z,99.99
2019-02-03T12:25:55.021Z,99.99
2019-02-03T12:27:03.073Z,99.99
2019-02-03T12:28:11.124Z,99.99
2019-02-03T12:29:19.182Z,99.99
2019-02-03T12:30:27.221Z,99.99
2019-02-03T12:31:35.295Z,99.99
2019-02-03T12:32:43.336Z,99.99
2019-02-03T12:33:51.401Z,99.99
2019-02-03T12:34:59.482Z,99.99
2019-02-03T12:36:07.506Z,99.99
2019-02-03T12:37:15.560Z,99.99
2019-02-03T12:38:23.622Z,99.99
2019-02-03T12:39:31.654Z,99.99
2019-02-03T12:40:39.739Z,99.99
2019-02-03T12:41:48.114Z,99.99
2019-02-03T12:42:55.827Z,99.99
2019-02-03T12:44:03.884Z,99.99
2019-02-03T12:45:11.932Z,99.99
2019-02-03T12:46:19.998Z,99.99
2019-02-03T12:47:28.060Z,99.99
2019-02-03T12:48:36.102Z,99.99
2019-02-03T12:49:44.165Z,99.99
2019-02-03T12:50:52.211Z,99.99
2019-02-03T12:52:00.255Z,99.99
2019-02-03T12:53:08.323Z,99.99
2019-02-03T12:54:16.376Z,99.99
2019-02-03T12:55:24.405Z,99.99
2019-02-03T12:56:32.474Z,99.99
2019-02-03T12:57:40.557Z,99.99
2019-02-03T12:58:48.588Z,99.99
2019-02-03T12:59:56.648Z,99.99
2019-02-03T13:01:04.659Z,99.99
2019-02-03T13:02:12.755Z,99.99
2019-02-03T13:03:20.812Z,99.99
2019-02-03T13:04:28.871Z,99.99
2019-02-03T13:05:36.923Z,99.99
2019-02-03T13:06:44.964Z,99.99
2019-02-03T13:07:53.026Z,99.99
2019-02-03T13:09:01.086Z,99.99
2019-02-03T13:10:16.281Z,99.99
2019-02-03T13:11:17.196Z,99.99
2019-02-03T13:12:27.338Z,99.99
2019-02-03T13:13:33.305Z,99.99
2019-02-03T13:14:41.349Z,99.99
2019-02-03T13:15:49.408Z,99.99
2019-02-03T13:16:57.456Z,99.99
2019-02-03T13:18:05.517Z,99.99
2019-02-03T13:19:15.558Z,99.99
2019-02-03T13:20:21.626Z,99.99
2019-02-03T13:21:29.673Z,99.99
2019-02-03T13:22:37.728Z,99.99
2019-02-03T13:23:45.786Z,99.99
2019-02-03T13:24:53.831Z,99.99
2019-02-03T13:26:01.900Z,99.99
2019-02-03T13:27:09.957Z,99.99
2019-02-03T13:28:17.994Z,99.99
2019-02-03T13:29:26.095Z,99.99
2019-02-03T13:30:34.112Z,99.99
2019-02-03T13:31:42.166Z,99.99
2019-02-03T13:32:50.210Z,99.99
2019-02-03T13:33:59.049Z,99.99
2019-02-03T13:35:06.320Z,99.99
2019-02-03T13:36:14.369Z,99.99
2019-02-03T13:37:22.437Z,99.99
2019-02-03T13:38:30.498Z,99.99
2019-02-03T13:39:38.547Z,99.99
2019-02-03T13:40:46.599Z,99.99
2019-02-03T13:41:54.629Z,99.99
2019-02-03T13:43:02.705Z,99.99
2019-02-03T13:44:10.783Z,99.99
2019-02-03T13:45:20.687Z,99.99
2019-02-03T13:46:26.869Z,99.99
2019-02-03T13:47:34.916Z,99.99
2019-02-03T13:48:42.979Z,99.99
2019-02-03T13:49:51.036Z,99.99
2019-02-03T13:50:59.178Z,99.99
2019-02-03T13:52:07.139Z,99.99
2019-02-03T13:53:15.198Z,99.99
2019-02-03T13:54:23.236Z,99.99
2019-02-03T13:55:31.294Z,99.99
2019-02-03T13:56:39.344Z,99.99
2019-02-03T13:57:47.436Z,99.99
2019-02-03T13:58:55.496Z,99.99
2019-02-03T14:00:03.510Z,99.99
2019-02-03T14:01:11.556Z,99.99
2019-02-03T14:02:19.618Z,99.99
2019-02-03T14:03:27.683Z,99.99
2019-02-03T14:04:35.726Z,99.99
2019-02-03T14:05:43.769Z,99.99
2019-02-03T14:06:51.833Z,99.99
2019-02-03T14:07:59.885Z,99.99
2019-02-03T14:09:07.942Z,99.99
2019-02-03T14:10:15.993Z,99.99
2019-02-03T14:11:24.015Z,99.99
2019-02-03T14:12:32.098Z,99.99
2019-02-03T14:13:40.158Z,99.99
2019-02-03T14:14:48.210Z,99.99
2019-02-03T14:15:56.266Z,99.99
2019-02-03T14:17:04.300Z,99.99
2019-02-03T14:18:12.362Z,99.99
2019-02-03T14:19:20.423Z,99.99
2019-02-03T14:20:28.486Z,99.99
2019-02-03T14:21:36.538Z,99.99
2019-02-03T14:22:44.555Z,99.99
2019-02-03T14:23:52.633Z,99.99
2019-02-03T14:25:00.714Z,99.99
2019-02-03T14:26:08.751Z,99.99
2019-02-03T14:27:16.791Z,99.99
2019-02-03T14:28:24.820Z,99.99
2019-02-03T14:29:32.901Z,99.99
2019-02-03T14:30:41.279Z,99.99
2019-02-03T14:31:49.018Z,99.99
2019-02-03T14:32:58.431Z,99.99
2019-02-03T14:34:05.116Z,99.99
2019-02-03T14:35:13.153Z,99.99
2019-02-03T14:36:21.219Z,99.99